地図

経路データ

SID SEASON NUMBER BASIN SUBBASIN NAME ISO_TIME NATURE LAT LON WMO_WIND WMO_PRES WMO_AGENCY TRACK_TYPE DIST2LAND LANDFALL IFLAG USA_AGENCY USA_ATCF_ID USA_LAT USA_LON USA_RECORD USA_STATUS USA_WIND USA_PRES USA_SSHS USA_R34_NE USA_R34_SE USA_R34_SW USA_R34_NW USA_R50_NE USA_R50_SE USA_R50_SW USA_R50_NW USA_R64_NE USA_R64_SE USA_R64_SW USA_R64_NW USA_POCI USA_ROCI USA_RMW USA_EYE TOKYO_LAT TOKYO_LON TOKYO_GRADE TOKYO_WIND TOKYO_PRES TOKYO_R50_DIR TOKYO_R50_LONG TOKYO_R50_SHORT TOKYO_R30_DIR TOKYO_R30_LONG TOKYO_R30_SHORT TOKYO_LAND CMA_LAT CMA_LON CMA_CAT CMA_WIND CMA_PRES HKO_LAT HKO_LON HKO_CAT HKO_WIND HKO_PRES NEWDELHI_LAT NEWDELHI_LON NEWDELHI_GRADE NEWDELHI_WIND NEWDELHI_PRES NEWDELHI_CI NEWDELHI_DP NEWDELHI_POCI REUNION_LAT REUNION_LON REUNION_TYPE REUNION_WIND REUNION_PRES REUNION_TNUM REUNION_CI REUNION_RMW REUNION_R34_NE REUNION_R34_SE REUNION_R34_SW REUNION_R34_NW REUNION_R50_NE REUNION_R50_SE REUNION_R50_SW REUNION_R50_NW REUNION_R64_NE REUNION_R64_SE REUNION_R64_SW REUNION_R64_NW BOM_LAT BOM_LON BOM_TYPE BOM_WIND BOM_PRES BOM_TNUM BOM_CI BOM_RMW BOM_R34_NE BOM_R34_SE BOM_R34_SW BOM_R34_NW BOM_R50_NE BOM_R50_SE BOM_R50_SW BOM_R50_NW BOM_R64_NE BOM_R64_SE BOM_R64_SW BOM_R64_NW BOM_ROCI BOM_POCI BOM_EYE BOM_POS_METHOD BOM_PRES_METHOD NADI_LAT NADI_LON NADI_CAT NADI_WIND NADI_PRES WELLINGTON_LAT WELLINGTON_LON WELLINGTON_WIND WELLINGTON_PRES DS824_LAT DS824_LON DS824_STAGE DS824_WIND DS824_PRES TD9636_LAT TD9636_LON TD9636_STAGE TD9636_WIND TD9636_PRES TD9635_LAT TD9635_LON TD9635_WIND TD9635_PRES TD9635_ROCI NEUMANN_LAT NEUMANN_LON NEUMANN_CLASS NEUMANN_WIND NEUMANN_PRES MLC_LAT MLC_LON MLC_CLASS MLC_WIND MLC_PRES USA_GUST BOM_GUST BOM_GUST_PER REUNION_GUST REUNION_GUST_PER USA_SEAHGT USA_SEARAD_NE USA_SEARAD_SE USA_SEARAD_SW USA_SEARAD_NW STORM_SPEED STORM_DIR
1893252N18090 1893 42 NI BB NOT_NAMED 1893-09-09 00:00:00 TS 18.3000 90.0000 main 361 354 _________O____ -1 18.3000 90.0000 TC 34 3 353
1893252N18090 1893 42 NI BB NOT_NAMED 1893-09-09 03:00:00 TS 18.4417 89.9734 main 354 345 _________PO___ -1 18.5125 89.9600 TC 36 18.3000 90.0000 2 3 343
1893252N18090 1893 42 NI BB NOT_NAMED 1893-09-09 06:00:00 TS 18.6081 89.9101 main 345 321 _________OP___ -1 18.7000 89.9000 TC 39 18.4704 89.9252 2 4 337
1893252N18090 1893 42 NI BB NOT_NAMED 1893-09-09 09:00:00 TS 18.7611 89.8258 main 321 308 _________PP___ -1 18.8500 89.8075 TC 42 18.6426 89.8502 2 3 331
1893252N18090 1893 42 NI BB NOT_NAMED 1893-09-09 12:00:00 TS 18.9092 89.7376 main 308 286 _________OP___ -1 19.0000 89.7000 TC 45 18.8185 89.7751 2 4 333
1893252N18090 1893 42 NI BB NOT_NAMED 1893-09-09 15:00:00 TS 19.0962 89.6500 main 286 262 _________PO___ -1 19.1925 89.6000 TC 45 19.0000 89.7000 3 4 336
1893252N18090 1893 42 NI BB NOT_NAMED 1893-09-09 18:00:00 TS 19.2943 89.5616 main 262 238 _________OP___ -1 19.4000 89.5000 TC 45 19.1887 89.6232 3 4 338
1893252N18090 1893 42 NI BB NOT_NAMED 1893-09-09 21:00:00 TS 19.4887 89.4760 main 238 214 _________PP___ -1 19.5925 89.4149 TC 45 19.3849 89.5372 3 4 335
1893252N18090 1893 42 NI BB NOT_NAMED 1893-09-10 00:00:00 TS 19.6943 89.3663 main 214 190 _________OP___ -1 19.8000 89.3000 TC 45 19.5886 89.4326 3 5 330
1893252N18090 1893 42 NI BB NOT_NAMED 1893-09-10 03:00:00 TS 19.9250 89.2075 main 190 167 _________PO___ -1 20.0500 89.1151 TC 45 19.8000 89.3000 3 6 325
1893252N18090 1893 42 NI BB NOT_NAMED 1893-09-10 06:00:00 TS 20.1588 89.0244 main 156 134 _________OP___ -1 20.3000 88.9000 TC 45 20.0177 89.1489 3 6 322
1893252N18090 1893 42 NI BB NOT_NAMED 1893-09-10 09:00:00 TS 20.3711 88.8410 main 134 112 _________PP___ -1 20.4999 88.7148 TC 45 20.2423 88.9672 3 6 319
1893252N18090 1893 42 NI BB NOT_NAMED 1893-09-10 12:00:00 TS 20.5854 88.6260 main 112 89 _________OP___ -1 20.7000 88.5000 TC 45 20.4707 88.7519 3 6 315
1893252N18090 1893 42 NI BB NOT_NAMED 1893-09-10 15:00:00 TS 20.8250 88.3613 main 89 56 _________PO___ -1 20.9500 88.2225 TC 45 20.7000 88.5000 3 7 313
1893252N18090 1893 42 NI BB NOT_NAMED 1893-09-10 18:00:00 TS 21.0685 88.0656 main 56 44 _________OP___ -1 21.2000 87.9000 TC 45 20.9370 88.2312 3 7 309
1893252N18090 1893 42 NI BB NOT_NAMED 1893-09-10 21:00:00 TS 21.2935 87.7487 main 44 11 _________PP___ -1 21.4149 87.5724 TC 45 21.1721 87.9249 3 8 304
1893252N18090 1893 42 NI BB NOT_NAMED 1893-09-11 00:00:00 TS 21.4981 87.3906 main 11 0 _________OP___ -1 21.6000 87.2000 TC 45 21.3962 87.5812 3 8 298
1893252N18090 1893 42 NI BB NOT_NAMED 1893-09-11 03:00:00 TS 21.6787 86.9824 main 0 0 _________PO___ -1 21.7575 86.7649 TC 41 21.6000 87.2000 3 8 293
1893252N18090 1893 42 NI BB NOT_NAMED 1893-09-11 06:00:00 TS 21.8356 86.5529 main 0 0 _________OP___ -1 21.9000 86.3000 TC 37 21.7712 86.8057 3 9 291
1893252N18090 1893 42 NI BB NOT_NAMED 1893-09-11 09:00:00 TS 21.9858 86.1233 main 0 0 _________PP___ -1 22.0497 85.8723 TC 33 21.9219 86.3742 3 9 289
1893252N18090 1893 42 NI BB NOT_NAMED 1893-09-11 12:00:00 TS 22.1308 85.6528 main 0 0 _________OP___ -1 22.2000 85.4000 TC 30 22.0616 85.9056 3 10 287
1893252N18090 1893 42 NI BB NOT_NAMED 1893-09-11 15:00:00 TS 22.2750 85.1075 main 0 0 _________PO___ -1 22.3501 84.8150 TC 30 22.2000 85.4000 1 11 285
1893252N18090 1893 42 NI BB NOT_NAMED 1893-09-11 18:00:00 TS 22.4235 84.5062 main 0 0 _________OP___ -1 22.5000 84.2000 TC 30 22.3469 84.8124 1 12 285
1893252N18090 1893 42 NI BB NOT_NAMED 1893-09-11 21:00:00 TS 22.5720 83.9014 main 0 0 _________PP___ -1 22.6501 83.6050 TC 30 22.4940 84.1978 1 11 286
1893252N18090 1893 42 NI BB NOT_NAMED 1893-09-12 00:00:00 TS 22.7219 83.3546 main 0 0 _________OP___ -1 22.8000 83.1000 TC 30 22.6439 83.6092 1 9 288
1893252N18090 1893 42 NI BB NOT_NAMED 1893-09-12 03:00:00 TS 22.8711 82.9274 main 0 0 _________PO___ -1 22.9422 82.7548 TC 30 22.8000 83.1000 1 7 295
1893252N18090 1893 42 NI BB NOT_NAMED 1893-09-12 06:00:00 TS 23.0353 82.6232 main 0 0 _________OP___ -1 23.1000 82.5000 TC 30 22.9705 82.7463 1 6 304
1893252N18090 1893 42 NI BB NOT_NAMED 1893-09-12 09:00:00 TS 23.2204 82.3621 main 0 0 _________PP___ -1 23.2924 82.2499 TC 30 23.1483 82.4742 1 6 309
1893252N18090 1893 42 NI BB NOT_NAMED 1893-09-12 12:00:00 TS 23.4135 82.1200 main 0 0 _________OP___ -1 23.5000 82.0000 TC 30 23.3271 82.2401 1 6 310
1893252N18090 1893 42 NI BB NOT_NAMED 1893-09-12 15:00:00 TS 23.6075 81.8575 main 0 0 _________PO___ -1 23.7149 81.7150 TC 30 23.5000 82.0000 1 6 306
1893252N18090 1893 42 NI BB NOT_NAMED 1893-09-12 18:00:00 TS 23.7862 81.5690 main 0 0 _________OP___ -1 23.9000 81.4000 TC 30 23.6725 81.7379 1 6 301
1893252N18090 1893 42 NI BB NOT_NAMED 1893-09-12 21:00:00 TS 23.9290 81.2748 main 0 0 _________PP___ -1 24.0221 81.0949 TC 30 23.8359 81.4547 1 7 293
1893252N18090 1893 42 NI BB NOT_NAMED 1893-09-13 00:00:00 TS 24.0407 80.9096 main 0 0 _________OP___ -1 24.1000 80.7000 TC 30 23.9815 81.1192 1 8 284
1893252N18090 1893 42 NI BB NOT_NAMED 1893-09-13 03:00:00 TS 24.1288 80.4224 main 0 0 _________PO___ -1 24.1575 80.1449 TC 30 24.1000 80.7000 1 10 279
1893252N18090 1893 42 NI BB NOT_NAMED 1893-09-13 06:00:00 TS 24.1919 79.8224 main 0 0 _________OP___ -1 24.2000 79.5000 TC 30 24.1839 80.1448 1 11 276
1893252N18090 1893 42 NI BB NOT_NAMED 1893-09-13 09:00:00 TS 24.2483 79.1761 main 0 0 _________PP___ -1 24.2575 78.8426 TC 30 24.2390 79.5096 1 12 275
1893252N18090 1893 42 NI BB NOT_NAMED 1893-09-13 12:00:00 TS 24.2872 78.5224 main 0 0 _________OP___ -1 24.3000 78.2000 TC 30 24.2744 78.8447 1 12 273
1893252N18090 1893 42 NI AS NOT_NAMED 1893-09-13 15:00:00 TS 24.2999 77.9137 main 0 0 _________PO___ -1 24.2997 77.6273 TC 30 24.3000 78.2000 1 11 272
1893252N18090 1893 42 NI AS NOT_NAMED 1893-09-13 18:00:00 TS 24.3157 77.3669 main 0 0 _________OP___ -1 24.3000 77.1000 TC 30 24.3314 77.6339 1 10 273
1893252N18090 1893 42 NI AS NOT_NAMED 1893-09-13 21:00:00 TS 24.3494 76.8412 main 0 0 _________PP___ -1 24.3423 76.5851 TC 30 24.3565 77.0973 1 9 275
1893252N18090 1893 42 NI AS NOT_NAMED 1893-09-14 00:00:00 TS 24.3892 76.3435 main 0 0 _________OP___ -1 24.4000 76.1000 TC 30 24.3785 76.5870 1 9 275
1893252N18090 1893 42 NI AS NOT_NAMED 1893-09-14 03:00:00 TS 24.4286 75.8713 main 0 0 _________PO___ -1 24.4573 75.6425 TC 30 24.4000 76.1000 1 9 275
1893252N18090 1893 42 NI AS NOT_NAMED 1893-09-14 06:00:00 TS 24.4642 75.4102 main 0 0 _________OP___ -1 24.5000 75.2000 TC 30 24.4285 75.6204 1 8 274
1893252N18090 1893 42 NI AS NOT_NAMED 1893-09-14 09:00:00 TS 24.4821 74.9525 main 0 0 _________PP___ -1 24.5074 74.7424 TC 30 24.4568 75.1626 1 8 272
1893252N18090 1893 42 NI AS NOT_NAMED 1893-09-14 12:00:00 TS 24.4909 74.5118 main 0 0 _________OP___ -1 24.5000 74.3000 TC 30 24.4817 74.7235 1 8 271
1893252N18090 1893 42 NI AS NOT_NAMED 1893-09-14 15:00:00 TS 24.4999 74.0963 main 0 0 _________PO___ -1 24.4998 73.8925 TC 30 24.5000 74.3000 1 8 271
1893252N18090 1893 42 NI AS NOT_NAMED 1893-09-14 18:00:00 TS 24.5036 73.6725 main 0 0 _________OP___ -1 24.5000 73.5000 TC 30 24.5073 73.8449 1 8 270
1893252N18090 1893 42 NI AS NOT_NAMED 1893-09-14 21:00:00 TS 24.5039 73.2362 main 0 0 _________PP___ -1 24.5001 73.0625 TC 30 24.5077 73.4099 1 7 270
1893252N18090 1893 42 NI AS NOT_NAMED 1893-09-15 00:00:00 TS 24.5021 72.8600 main 0 0 _________OP___ -1 24.5000 72.7000 TC 30 24.5043 73.0199 1 6 270
1893252N18090 1893 42 NI AS NOT_NAMED 1893-09-15 03:00:00 TS 24.4999 72.6062 main 0 0 _________PO___ -1 24.4998 72.5125 TC 30 24.5000 72.7000 1 4 269
1893252N18090 1893 42 NI AS NOT_NAMED 1893-09-15 06:00:00 TS 24.4976 72.4391 main 0 0 _________OP___ -1 24.5000 72.4000 TC 30 24.4953 72.4781 1 3 269
1893252N18090 1893 42 NI AS NOT_NAMED 1893-09-15 09:00:00 TS 24.4959 72.2875 main 0 0 _________PP___ -1 24.5000 72.2500 TC 30 24.4917 72.3250 1 3 270
1893252N18090 1893 42 NI AS NOT_NAMED 1893-09-15 12:00:00 TS 24.4962 72.1547 main 0 0 _________OP___ -1 24.5000 72.1000 TC 30 24.4923 72.2094 1 2 270
1893252N18090 1893 42 NI AS NOT_NAMED 1893-09-15 15:00:00 TS 24.4962 72.0250 main 0 0 _________PO___ -1 24.4925 71.9500 TC 30 24.5000 72.1000 1 3 270
1893252N18090 1893 42 NI AS NOT_NAMED 1893-09-15 18:00:00 TS 24.4947 71.8628 main 0 0 _________OP___ -1 24.5000 71.8000 TC 30 24.4894 71.9256 1 3 272
1893252N18090 1893 42 NI AS NOT_NAMED 1893-09-15 21:00:00 TS 24.5088 71.6950 main 0 0 _________PP___ -1 24.5275 71.6350 TC 30 24.4901 71.7550 1 3 283
1893252N18090 1893 42 NI AS NOT_NAMED 1893-09-16 00:00:00 TS 24.5604 71.5535 main 0 0 _________OP___ -1 24.6000 71.5000 TC 30 24.5207 71.6069 1 3 305
1893252N18090 1893 42 NI AS NOT_NAMED 1893-09-16 03:00:00 TS 24.6600 71.4600 main 0 0 _________PO___ -1 24.7200 71.4200 TC 30 24.6000 71.5000 1 3 336
1893252N18090 1893 42 NI AS NOT_NAMED 1893-09-16 06:00:00 TS 24.8228 71.4204 main 0 0 _________OP___ -1 24.9000 71.4000 TC 30 24.7455 71.4408 1 4 354
1893252N18090 1893 42 NI AS NOT_NAMED 1893-09-16 09:00:00 TS 25.0374 71.4263 main 0 0 _________PP___ -1 25.1350 71.4275 TC 30 24.9399 71.4252 1 5 5
1893252N18090 1893 42 NI AS NOT_NAMED 1893-09-16 12:00:00 TS 25.2821 71.4735 main 0 0 _________OP___ -1 25.4000 71.5000 TC 30 25.1643 71.4470 1 5 13
1893252N18090 1893 42 NI AS NOT_NAMED 1893-09-16 15:00:00 TS 25.5288 71.5462 main 0 0 _________PO___ -1 25.6575 71.5925 TC 30 25.4000 71.5000 1 5 17
1893252N18090 1893 42 NI AS NOT_NAMED 1893-09-16 18:00:00 TS 25.7508 71.6356 main 0 0 _________OP___ -1 25.9000 71.7000 TC 30 25.6016 71.5712 1 5 22
1893252N18090 1893 42 NI AS NOT_NAMED 1893-09-16 21:00:00 TS 25.9525 71.7350 main 0 0 _________PP___ -1 26.0925 71.8001 TC 30 25.8126 71.6700 1 5 24
1893252N18090 1893 42 NI AS NOT_NAMED 1893-09-17 00:00:00 TS 26.1711 71.8419 main 0 0 _________OP___ -1 26.3000 71.9000 TC 30 26.0422 71.7838 1 5 22
1893252N18090 1893 42 NI AS NOT_NAMED 1893-09-17 03:00:00 TS 26.4387 71.9500 main 0 0 _________PO___ -1 26.5775 72.0000 TC 30 26.3000 71.9000 1 6 18
1893252N18090 1893 42 NI AS NOT_NAMED 1893-09-17 06:00:00 TS 26.7420 72.0421 main 0 0 _________OP___ -1 26.9000 72.1000 TC 30 26.5840 71.9843 1 7 14
1893252N18090 1893 42 NI AS NOT_NAMED 1893-09-17 09:00:00 TS 27.0662 72.1317 main 0 0 _________PP___ -1 27.2350 72.1926 TC 30 26.8973 72.0708 1 7 14
1893252N18090 1893 42 NI AS NOT_NAMED 1893-09-17 12:00:00 TS 27.4185 72.2360 main 0 0 _________OP___ -1 27.6000 72.3000 TC 30 27.2370 72.1720 1 8 16
1893252N18090 1893 42 NI AS NOT_NAMED 1893-09-17 15:00:00 TS 27.7962 72.3638 main 0 0 _________PO___ -1 27.9924 72.4277 TC 30 27.6000 72.3000 1 8 19
1893252N18090 1893 42 NI AS NOT_NAMED 1893-09-17 18:00:00 TS 28.2034 72.5333 main 0 0 _________OP___ -1 28.4000 72.6000 TC 30 28.0069 72.4667 1 9 22
1893252N18090 1893 42 NI AS NOT_NAMED 1893-09-17 21:00:00 TS 28.6263 72.7520 main 0 0 _________PP___ -1 28.8226 72.8423 TC 30 28.4300 72.6618 1 9 26
1893252N18090 1893 42 NI AS NOT_NAMED 1893-09-18 00:00:00 TS 29.0191 72.9880 main 0 0 _________OP___ -1 29.2000 73.1000 TC 30 28.8381 72.8761 1 8 29
1893252N18090 1893 42 NI AS NOT_NAMED 1893-09-18 03:00:00 TS 29.3399 73.2001 main 0 0 _________PO___ -1 29.4799 73.3003 TC 30 29.2000 73.1000 1 7 33
1893252N18090 1893 42 NI AS NOT_NAMED 1893-09-18 06:00:00 TS 29.5855 73.4053 main 0 0 _________OP___ -1 29.7000 73.5000 TC 30 29.4711 73.3106 1 6 40
1893252N18090 1893 42 NI AS NOT_NAMED 1893-09-18 09:00:00 TS 29.7974 73.6357 main 0 0 _________PP___ -1 29.9000 73.7427 TC 30 29.6947 73.5287 1 6 45
1893252N18090 1893 42 NI AS NOT_NAMED 1893-09-18 12:00:00 TS 29.9980 73.8787 main 0 0 _________OP___ -1 30.1000 74.0000 TC 30 29.8960 73.7575 1 6 45
1893252N18090 1893 42 NI AS NOT_NAMED 1893-09-18 15:00:00 TS 30.2212 74.1213 main 0 0 _________PO___ -1 30.3424 74.2426 TC 30 30.1000 74.0000 1 6 43
1893252N18090 1893 42 NI AS NOT_NAMED 1893-09-18 18:00:00 TS 30.4436 74.3621 main 0 0 _________OP___ -1 30.6000 74.5000 TC 30 30.3263 74.2586 1 6 44
1893252N18090 1893 42 NI AS NOT_NAMED 1893-09-18 21:00:00 TS 30.6849 74.6343 main 0 0 _________PP___ -1 30.8527 74.7897 TC 30 30.5731 74.5307 1 7 44
1893252N18090 1893 42 NI AS NOT_NAMED 1893-09-19 00:00:00 TS 30.9222 74.9083 main 0 0 _________OP___ -1 31.1000 75.1000 TC 30 30.8334 74.8125 1 6 44
1893252N18090 1893 42 NI AS NOT_NAMED 1893-09-19 03:00:00 NR 31.1000 75.1000 main 0 __________O___ -1 TC 31.1000 75.1000 1 5 42

IBTrACS Databaseについて

本データベースは、米国NOAAが公開する1842年以降の世界の熱帯低気圧のベストトラックデータアーカイブInternational Best Track Archive for Climate Stewardship (IBTrACS)を、ウェブで閲覧しやすい形式に変換したものです。

最終更新日:2021-12-03